sensor_id;sensor_type;location;lat;lon;timestamp;pressure;altitude;pressure_sealevel;temperature;humidity
34185;BME280;20454;48.100;11.776;2022-09-03T00:03:13;95180.97;;;12.96;87.75
34185;BME280;20454;48.100;11.776;2022-09-03T00:09:13;95183.47;;;12.89;87.42
34185;BME280;20454;48.100;11.776;2022-09-03T00:14:43;95180.41;;;12.82;86.71
34185;BME280;20454;48.100;11.776;2022-09-03T00:17:17;95177.84;;;12.77;86.42
34185;BME280;20454;48.100;11.776;2022-09-03T00:19:59;95197.38;;;12.77;87.05
34185;BME280;20454;48.100;11.776;2022-09-03T00:23:04;95192.50;;;12.74;86.98
34185;BME280;20454;48.100;11.776;2022-09-03T00:25:40;95188.63;;;12.66;87.19
34185;BME280;20454;48.100;11.776;2022-09-03T00:28:19;95190.25;;;12.67;86.95
34185;BME280;20454;48.100;11.776;2022-09-03T00:31:01;95188.16;;;12.64;87.64
34185;BME280;20454;48.100;11.776;2022-09-03T00:33:31;95183.38;;;12.65;88.62
34185;BME280;20454;48.100;11.776;2022-09-03T00:36:15;95191.19;;;12.71;89.37
34185;BME280;20454;48.100;11.776;2022-09-03T00:38:43;95192.50;;;12.74;89.93
34185;BME280;20454;48.100;11.776;2022-09-03T00:41:35;95189.69;;;12.74;90.04
34185;BME280;20454;48.100;11.776;2022-09-03T00:47:34;95183.22;;;12.82;89.81
34185;BME280;20454;48.100;11.776;2022-09-03T00:59:50;95188.78;;;12.82;89.29
34185;BME280;20454;48.100;11.776;2022-09-03T01:05:41;95188.88;;;12.73;89.66
34185;BME280;20454;48.100;11.776;2022-09-03T01:08:42;95196.66;;;12.68;89.64
34185;BME280;20454;48.100;11.776;2022-09-03T01:11:22;95198.34;;;12.60;89.49
34185;BME280;20454;48.100;11.776;2022-09-03T01:28:39;95201.50;;;12.38;90.80
34185;BME280;20454;48.100;11.776;2022-09-03T01:39:50;95192.47;;;12.21;91.79
34185;BME280;20454;48.100;11.776;2022-09-03T01:43:09;95192.31;;;12.17;91.54
34185;BME280;20454;48.100;11.776;2022-09-03T01:45:53;95195.31;;;12.12;91.18
34185;BME280;20454;48.100;11.776;2022-09-03T01:49:04;95183.53;;;12.07;90.35
34185;BME280;20454;48.100;11.776;2022-09-03T01:51:30;95201.09;;;12.07;90.60
34185;BME280;20454;48.100;11.776;2022-09-03T01:54:05;95196.69;;;12.06;90.79
34185;BME280;20454;48.100;11.776;2022-09-03T01:59:21;95186.81;;;12.09;91.36
34185;BME280;20454;48.100;11.776;2022-09-03T02:02:01;95183.69;;;12.10;92.00
34185;BME280;20454;48.100;11.776;2022-09-03T02:04:28;95181.88;;;12.14;92.07
34185;BME280;20454;48.100;11.776;2022-09-03T02:06:59;95168.94;;;12.10;92.67
34185;BME280;20454;48.100;11.776;2022-09-03T02:09:26;95184.09;;;12.21;91.82
34185;BME280;20454;48.100;11.776;2022-09-03T02:12:10;95169.69;;;12.19;91.94
34185;BME280;20454;48.100;11.776;2022-09-03T02:14:38;95175.25;;;12.19;91.73
34185;BME280;20454;48.100;11.776;2022-09-03T02:17:06;95165.03;;;12.23;92.18
34185;BME280;20454;48.100;11.776;2022-09-03T02:19:33;95164.72;;;12.24;91.73
34185;BME280;20454;48.100;11.776;2022-09-03T02:22:02;95166.34;;;12.25;91.91
34185;BME280;20454;48.100;11.776;2022-09-03T02:24:28;95165.53;;;12.25;91.91
34185;BME280;20454;48.100;11.776;2022-09-03T02:26:55;95161.59;;;12.26;91.99
34185;BME280;20454;48.100;11.776;2022-09-03T02:29:21;95149.84;;;12.20;92.36
34185;BME280;20454;48.100;11.776;2022-09-03T02:31:47;95158.78;;;12.26;92.57
34185;BME280;20454;48.100;11.776;2022-09-03T02:34:14;95165.53;;;12.25;92.08
34185;BME280;20454;48.100;11.776;2022-09-03T02:36:46;95163.06;;;12.23;92.28
34185;BME280;20454;48.100;11.776;2022-09-03T02:39:14;95164.25;;;12.22;92.30
34185;BME280;20454;48.100;11.776;2022-09-03T02:41:40;95172.41;;;12.27;91.95
34185;BME280;20454;48.100;11.776;2022-09-03T02:44:46;95176.34;;;12.26;92.04
34185;BME280;20454;48.100;11.776;2022-09-03T02:47:06;95177.16;;;12.27;91.51
34185;BME280;20454;48.100;11.776;2022-09-03T02:49:32;95176.00;;;12.28;91.40
34185;BME280;20454;48.100;11.776;2022-09-03T02:52:06;95173.91;;;12.25;91.10
34185;BME280;20454;48.100;11.776;2022-09-03T02:54:35;95173.06;;;12.24;91.72
34185;BME280;20454;48.100;11.776;2022-09-03T02:57:06;95181.13;;;12.26;92.14
34185;BME280;20454;48.100;11.776;2022-09-03T02:59:32;95177.03;;;12.23;92.82
34185;BME280;20454;48.100;11.776;2022-09-03T03:01:58;95183.44;;;12.24;92.44
34185;BME280;20454;48.100;11.776;2022-09-03T03:04:24;95170.00;;;12.17;92.46
34185;BME280;20454;48.100;11.776;2022-09-03T03:06:50;95170.47;;;12.19;92.67
34185;BME280;20454;48.100;11.776;2022-09-03T03:09:16;95167.09;;;12.14;92.95
34185;BME280;20454;48.100;11.776;2022-09-03T03:11:42;95183.03;;;12.13;93.26
34185;BME280;20454;48.100;11.776;2022-09-03T03:14:08;95172.88;;;12.09;93.21
34185;BME280;20454;48.100;11.776;2022-09-03T03:16:35;95174.38;;;12.06;93.48
34185;BME280;20454;48.100;11.776;2022-09-03T03:19:00;95187.81;;;12.04;93.23
34185;BME280;20454;48.100;11.776;2022-09-03T03:21:26;95188.84;;;12.00;93.11
34185;BME280;20454;48.100;11.776;2022-09-03T03:23:52;95186.53;;;12.02;92.85
34185;BME280;20454;48.100;11.776;2022-09-03T03:26:19;95190.00;;;11.99;93.74
34185;BME280;20454;48.100;11.776;2022-09-03T03:28:47;95178.56;;;11.92;93.55
34185;BME280;20454;48.100;11.776;2022-09-03T03:31:19;95179.25;;;11.89;93.71
34185;BME280;20454;48.100;11.776;2022-09-03T03:33:55;95176.31;;;11.85;93.89
34185;BME280;20454;48.100;11.776;2022-09-03T03:36:23;95175.03;;;11.83;93.85
34185;BME280;20454;48.100;11.776;2022-09-03T03:38:53;95184.53;;;11.82;94.03
34185;BME280;20454;48.100;11.776;2022-09-03T03:41:33;95179.31;;;11.80;94.81
34185;BME280;20454;48.100;11.776;2022-09-03T03:44:03;95184.88;;;11.80;94.58
34185;BME280;20454;48.100;11.776;2022-09-03T03:46:40;95184.38;;;11.78;94.50
34185;BME280;20454;48.100;11.776;2022-09-03T03:49:07;95194.28;;;11.76;95.15
34185;BME280;20454;48.100;11.776;2022-09-03T03:51:35;95193.75;;;11.74;94.97
34185;BME280;20454;48.100;11.776;2022-09-03T03:54:01;95198.88;;;11.72;94.78
34185;BME280;20454;48.100;11.776;2022-09-03T03:56:27;95196.25;;;11.67;94.70
34185;BME280;20454;48.100;11.776;2022-09-03T03:58:53;95194.16;;;11.64;95.04
34185;BME280;20454;48.100;11.776;2022-09-03T06:03:07;95289.25;;;13.55;86.41
34185;BME280;20454;48.100;11.776;2022-09-03T06:05:33;95281.81;;;13.59;85.82
34185;BME280;20454;48.100;11.776;2022-09-03T06:07:58;95290.44;;;13.66;86.14
34185;BME280;20454;48.100;11.776;2022-09-03T06:10:24;95277.06;;;13.72;85.21
34185;BME280;20454;48.100;11.776;2022-09-03T06:12:50;95269.03;;;13.82;84.79
34185;BME280;20454;48.100;11.776;2022-09-03T06:15:16;95257.97;;;13.86;84.42
34185;BME280;20454;48.100;11.776;2022-09-03T06:17:42;95260.16;;;14.04;84.57
34185;BME280;20454;48.100;11.776;2022-09-03T06:20:09;95249.56;;;14.10;84.21
34185;BME280;20454;48.100;11.776;2022-09-03T06:22:34;95254.00;;;14.23;84.13
34185;BME280;20454;48.100;11.776;2022-09-03T06:25:00;95261.56;;;14.34;83.50
34185;BME280;20454;48.100;11.776;2022-09-03T06:27:28;95259.81;;;14.42;83.16
34185;BME280;20454;48.100;11.776;2022-09-03T06:29:53;95269.97;;;14.46;81.88
34185;BME280;20454;48.100;11.776;2022-09-03T06:32:19;95265.41;;;14.54;80.66
34185;BME280;20454;48.100;11.776;2022-09-03T06:34:45;95260.81;;;14.61;80.60
34185;BME280;20454;48.100;11.776;2022-09-03T06:37:10;95265.59;;;14.73;81.74
34185;BME280;20454;48.100;11.776;2022-09-03T06:39:36;95260.31;;;14.83;81.62
34185;BME280;20454;48.100;11.776;2022-09-03T06:42:02;95269.28;;;14.88;79.87
34185;BME280;20454;48.100;11.776;2022-09-03T06:44:28;95264.69;;;14.96;79.19
34185;BME280;20454;48.100;11.776;2022-09-03T06:46:53;95259.66;;;15.01;79.07
34185;BME280;20454;48.100;11.776;2022-09-03T06:49:19;95266.03;;;15.14;78.87
34185;BME280;20454;48.100;11.776;2022-09-03T06:51:45;95272.50;;;15.30;78.98
34185;BME280;20454;48.100;11.776;2022-09-03T06:54:12;95273.31;;;15.42;78.19
34185;BME280;20454;48.100;11.776;2022-09-03T06:56:40;95271.22;;;15.55;77.88
34185;BME280;20454;48.100;11.776;2022-09-03T06:59:12;95271.78;;;15.60;76.39
34185;BME280;20454;48.100;11.776;2022-09-03T07:01:40;95267.97;;;15.68;75.35
34185;BME280;20454;48.100;11.776;2022-09-03T07:04:07;95272.81;;;15.83;76.19
34185;BME280;20454;48.100;11.776;2022-09-03T07:06:37;95276.78;;;15.98;76.37
34185;BME280;20454;48.100;11.776;2022-09-03T07:09:08;95274.88;;;16.17;75.89
34185;BME280;20454;48.100;11.776;2022-09-03T07:55:37;95298.25;;;17.21;72.95
34185;BME280;20454;48.100;11.776;2022-09-03T07:58:04;95296.75;;;17.27;73.71
34185;BME280;20454;48.100;11.776;2022-09-03T08:00:30;95295.88;;;17.23;73.16
34185;BME280;20454;48.100;11.776;2022-09-03T08:02:58;95295.88;;;17.23;72.19
34185;BME280;20454;48.100;11.776;2022-09-03T08:05:32;95307.56;;;17.25;73.78
34185;BME280;20454;48.100;11.776;2022-09-03T08:08:04;95311.50;;;17.21;74.43
34185;BME280;20454;48.100;11.776;2022-09-03T08:10:34;95297.44;;;17.21;74.57
34185;BME280;20454;48.100;11.776;2022-09-03T08:13:00;95296.31;;;17.25;75.96
34185;BME280;20454;48.100;11.776;2022-09-03T08:15:31;95288.03;;;17.32;77.21
34185;BME280;20454;48.100;11.776;2022-09-03T08:17:57;95301.63;;;17.46;77.58
34185;BME280;20454;48.100;11.776;2022-09-03T08:20:25;95295.47;;;17.59;76.55
34185;BME280;20454;48.100;11.776;2022-09-03T08:22:58;95296.44;;;17.67;70.49
34185;BME280;20454;48.100;11.776;2022-09-03T08:25:25;95305.94;;;17.81;71.37
34185;BME280;20454;48.100;11.776;2022-09-03T08:27:50;95295.34;;;17.94;73.27
34185;BME280;20454;48.100;11.776;2022-09-03T08:30:16;95292.19;;;17.99;72.63
34185;BME280;20454;48.100;11.776;2022-09-03T08:32:42;95292.09;;;18.14;73.65
34185;BME280;20454;48.100;11.776;2022-09-03T08:35:08;95298.44;;;18.30;73.59
34185;BME280;20454;48.100;11.776;2022-09-03T08:37:34;95298.69;;;18.44;75.80
34185;BME280;20454;48.100;11.776;2022-09-03T08:40:00;95298.84;;;18.55;73.65
34185;BME280;20454;48.100;11.776;2022-09-03T08:42:48;95290.56;;;18.65;73.61
34185;BME280;20454;48.100;11.776;2022-09-03T08:45:20;95290.72;;;18.76;73.57
34185;BME280;20454;48.100;11.776;2022-09-03T08:48:11;95297.47;;;18.94;73.37
34185;BME280;20454;48.100;11.776;2022-09-03T08:50:43;95297.25;;;19.06;71.97
34185;BME280;20454;48.100;11.776;2022-09-03T08:53:46;95300.53;;;19.11;70.94
34185;BME280;20454;48.100;11.776;2022-09-03T08:56:23;95296.56;;;19.16;72.36
34185;BME280;20454;48.100;11.776;2022-09-03T08:58:49;95294.72;;;19.23;72.37
34185;BME280;20454;48.100;11.776;2022-09-03T09:04:51;95287.63;;;19.36;70.73
34185;BME280;20454;48.100;11.776;2022-09-03T09:10:28;95295.75;;;19.74;69.94
34185;BME280;20454;48.100;11.776;2022-09-03T09:13:17;95297.22;;;19.94;69.56
34185;BME280;20454;48.100;11.776;2022-09-03T09:15:59;95291.78;;;20.12;70.22
34185;BME280;20454;48.100;11.776;2022-09-03T09:19:03;95297.16;;;20.24;70.02
34185;BME280;20454;48.100;11.776;2022-09-03T09:21:44;95282.75;;;20.39;67.77
34185;BME280;20454;48.100;11.776;2022-09-03T09:24:22;95274.50;;;20.63;69.62
34185;BME280;20454;48.100;11.776;2022-09-03T09:26:59;95268.78;;;21.07;68.84
34185;BME280;20454;48.100;11.776;2022-09-03T09:29:31;95273.91;;;21.55;66.48
34185;BME280;20454;48.100;11.776;2022-09-03T09:31:57;95264.28;;;21.67;61.48
34185;BME280;20454;48.100;11.776;2022-09-03T09:34:23;95260.19;;;21.64;60.80
34185;BME280;20454;48.100;11.776;2022-09-03T09:36:55;95260.25;;;21.71;62.94
34185;BME280;20454;48.100;11.776;2022-09-03T09:39:22;95264.72;;;21.76;63.15
34185;BME280;20454;48.100;11.776;2022-09-03T09:42:06;95271.59;;;21.75;63.74
34185;BME280;20454;48.100;11.776;2022-09-03T09:44:35;95262.56;;;21.52;61.41
34185;BME280;20454;48.100;11.776;2022-09-03T09:47:29;95267.41;;;21.48;62.54
34185;BME280;20454;48.100;11.776;2022-09-03T09:50:01;95269.41;;;21.40;61.82
34185;BME280;20454;48.100;11.776;2022-09-03T09:52:28;95265.34;;;21.38;62.84
34185;BME280;20454;48.100;11.776;2022-09-03T09:55:18;95265.84;;;21.61;62.36
34185;BME280;20454;48.100;11.776;2022-09-03T09:57:45;95259.47;;;21.78;63.49
34185;BME280;20454;48.100;11.776;2022-09-03T10:00:15;95264.41;;;22.02;63.60
34185;BME280;20454;48.100;11.776;2022-09-03T10:02:53;95264.84;;;22.25;60.57
34185;BME280;20454;48.100;11.776;2022-09-03T10:05:28;95263.28;;;22.52;62.07
34185;BME280;20454;48.100;11.776;2022-09-03T10:08:00;95260.88;;;22.61;58.71
34185;BME280;20454;48.100;11.776;2022-09-03T10:10:27;95243.88;;;22.75;59.75
34185;BME280;20454;48.100;11.776;2022-09-03T10:13:05;95249.50;;;23.13;59.28
34185;BME280;20454;48.100;11.776;2022-09-03T10:15:54;95247.78;;;23.54;57.90
34185;BME280;20454;48.100;11.776;2022-09-03T10:22:01;95247.63;;;24.65;55.77
34185;BME280;20454;48.100;11.776;2022-09-03T10:27:10;95246.00;;;25.08;50.44
34185;BME280;20454;48.100;11.776;2022-09-03T10:29:39;95249.97;;;25.21;50.50
34185;BME280;20454;48.100;11.776;2022-09-03T10:35:30;95247.00;;;25.72;49.14
34185;BME280;20454;48.100;11.776;2022-09-03T10:40:48;95256.63;;;25.81;52.06
34185;BME280;20454;48.100;11.776;2022-09-03T10:43:24;95251.19;;;25.60;49.52
34185;BME280;20454;48.100;11.776;2022-09-03T10:46:27;95255.22;;;25.29;50.67
34185;BME280;20454;48.100;11.776;2022-09-03T10:49:20;95240.81;;;25.03;49.69
34185;BME280;20454;48.100;11.776;2022-09-03T10:52:11;95230.38;;;24.86;49.87
34185;BME280;20454;48.100;11.776;2022-09-03T10:57:50;95236.75;;;25.00;52.95
34185;BME280;20454;48.100;11.776;2022-09-03T11:00:19;95215.66;;;25.72;51.67
34185;BME280;20454;48.100;11.776;2022-09-03T11:03:24;95217.09;;;26.73;48.74
34185;BME280;20454;48.100;11.776;2022-09-03T11:06:00;95218.56;;;27.04;47.76
34185;BME280;20454;48.100;11.776;2022-09-03T11:08:34;95218.56;;;27.04;44.29
34185;BME280;20454;48.100;11.776;2022-09-03T11:11:37;95213.94;;;27.36;45.37
34185;BME280;20454;48.100;11.776;2022-09-03T11:14:11;95214.53;;;27.28;43.67
34185;BME280;20454;48.100;11.776;2022-09-03T11:16:46;95206.28;;;27.72;45.40
34185;BME280;20454;48.100;11.776;2022-09-03T11:19:17;95196.78;;;28.69;43.13
34185;BME280;20454;48.100;11.776;2022-09-03T11:21:44;95192.84;;;29.59;40.78
34185;BME280;20454;48.100;11.776;2022-09-03T11:24:22;95188.84;;;29.98;40.85
34185;BME280;20454;48.100;11.776;2022-09-03T11:32:25;95180.78;;;31.46;35.88
34185;BME280;20454;48.100;11.776;2022-09-03T11:34:55;95175.03;;;32.02;35.88
34185;BME280;20454;48.100;11.776;2022-09-03T11:37:27;95172.44;;;32.38;33.34
34185;BME280;20454;48.100;11.776;2022-09-03T11:40:15;95171.03;;;32.42;32.89
34185;BME280;20454;48.100;11.776;2022-09-03T11:42:43;95172.56;;;32.13;32.05
34185;BME280;20454;48.100;11.776;2022-09-03T11:47:57;95180.69;;;30.62;35.61
34185;BME280;20454;48.100;11.776;2022-09-03T11:50:33;95174.34;;;29.89;35.51
34185;BME280;20454;48.100;11.776;2022-09-03T11:53:09;95186.06;;;29.21;37.83
34185;BME280;20454;48.100;11.776;2022-09-03T11:56:38;95188.63;;;28.52;39.15
34185;BME280;20454;48.100;11.776;2022-09-03T11:58:44;95184.66;;;28.10;40.21
34185;BME280;20454;48.100;11.776;2022-09-03T12:01:16;95183.28;;;27.99;41.54
34185;BME280;20454;48.100;11.776;2022-09-03T12:04:01;95175.50;;;27.80;42.50
34185;BME280;20454;48.100;11.776;2022-09-03T12:10:10;95177.91;;;28.20;42.78
34185;BME280;20454;48.100;11.776;2022-09-03T12:18:34;95156.13;;;29.95;38.78
34185;BME280;20454;48.100;11.776;2022-09-03T12:21:04;95150.59;;;30.29;36.60
34185;BME280;20454;48.100;11.776;2022-09-03T12:23:34;95152.00;;;30.87;37.09
34185;BME280;20454;48.100;11.776;2022-09-03T12:26:09;95140.41;;;31.37;35.12
34185;BME280;20454;48.100;11.776;2022-09-03T12:28:42;95145.13;;;31.78;33.77
34185;BME280;20454;48.100;11.776;2022-09-03T12:31:30;95138.00;;;32.13;33.32
34185;BME280;20454;48.100;11.776;2022-09-03T12:34:14;95143.75;;;32.34;33.68
34185;BME280;20454;48.100;11.776;2022-09-03T12:36:47;95139.66;;;32.44;33.45
34185;BME280;20454;48.100;11.776;2022-09-03T12:41:55;95127.38;;;32.53;33.42
34185;BME280;20454;48.100;11.776;2022-09-03T12:44:28;95140.09;;;32.64;33.98
34185;BME280;20454;48.100;11.776;2022-09-03T12:47:14;95136.91;;;32.71;32.78
34185;BME280;20454;48.100;11.776;2022-09-03T12:49:48;95127.09;;;32.60;32.76
34185;BME280;20454;48.100;11.776;2022-09-03T12:52:32;95130.63;;;32.33;32.97
34185;BME280;20454;48.100;11.776;2022-09-03T12:55:34;95123.28;;;31.89;33.43
34185;BME280;20454;48.100;11.776;2022-09-03T12:58:19;95124.16;;;31.43;34.10
34185;BME280;20454;48.100;11.776;2022-09-03T13:01:11;95125.31;;;30.99;34.96
34185;BME280;20454;48.100;11.776;2022-09-03T13:04:05;95124.63;;;30.45;36.57
34185;BME280;20454;48.100;11.776;2022-09-03T13:06:47;95121.28;;;30.22;37.58
34185;BME280;20454;48.100;11.776;2022-09-03T13:09:22;95118.06;;;30.20;37.89
34185;BME280;20454;48.100;11.776;2022-09-03T13:11:48;95112.56;;;30.13;37.15
34185;BME280;20454;48.100;11.776;2022-09-03T13:14:16;95113.56;;;29.65;37.40
34185;BME280;20454;48.100;11.776;2022-09-03T13:25:22;95106.47;;;28.65;40.00
34185;BME280;20454;48.100;11.776;2022-09-03T13:28:02;95114.88;;;28.72;40.13
34185;BME280;20454;48.100;11.776;2022-09-03T13:30:56;95114.44;;;28.73;40.82
34185;BME280;20454;48.100;11.776;2022-09-03T13:33:25;95119.44;;;28.85;39.94
34185;BME280;20454;48.100;11.776;2022-09-03T13:36:23;95123.00;;;28.89;40.35
34185;BME280;20454;48.100;11.776;2022-09-03T13:39:02;95123.13;;;29.02;39.73
34185;BME280;20454;48.100;11.776;2022-09-03T13:44:15;95131.53;;;28.77;40.37
34185;BME280;20454;48.100;11.776;2022-09-03T13:46:54;95131.25;;;28.87;40.79
34185;BME280;20454;48.100;11.776;2022-09-03T13:49:45;95126.19;;;28.95;39.88
34185;BME280;20454;48.100;11.776;2022-09-03T13:52:44;95137.19;;;28.48;39.88
34185;BME280;20454;48.100;11.776;2022-09-03T13:55:21;95125.63;;;27.81;41.74
34185;BME280;20454;48.100;11.776;2022-09-03T14:00:48;95117.06;;;26.54;44.76
34185;BME280;20454;48.100;11.776;2022-09-03T14:03:31;95132.34;;;26.17;46.11
34185;BME280;20454;48.100;11.776;2022-09-03T14:16:23;95139.16;;;24.96;50.41
34185;BME280;20454;48.100;11.776;2022-09-03T14:18:40;95156.91;;;24.70;50.74
34185;BME280;20454;48.100;11.776;2022-09-03T14:21:57;95153.44;;;24.49;51.45
34185;BME280;20454;48.100;11.776;2022-09-03T14:24:30;95155.25;;;24.25;52.47
34185;BME280;20454;48.100;11.776;2022-09-03T14:27:02;95148.91;;;24.00;52.93
34185;BME280;20454;48.100;11.776;2022-09-03T14:29:32;95160.38;;;23.79;53.96
34185;BME280;20454;48.100;11.776;2022-09-03T14:32:18;95171.09;;;23.54;54.85
34185;BME280;20454;48.100;11.776;2022-09-03T14:44:08;95176.59;;;22.61;58.63
34185;BME280;20454;48.100;11.776;2022-09-03T14:53:23;95206.88;;;21.87;57.35
34185;BME280;20454;48.100;11.776;2022-09-03T15:01:36;95298.22;;;20.09;70.89
34185;BME280;20454;48.100;11.776;2022-09-03T15:08:43;95342.84;;;18.37;84.21
34185;BME280;20454;48.100;11.776;2022-09-03T15:10:56;95353.84;;;17.85;89.31
34185;BME280;20454;48.100;11.776;2022-09-03T15:13:34;95367.13;;;17.65;90.17
34185;BME280;20454;48.100;11.776;2022-09-03T15:16:19;95361.56;;;17.50;95.34
34185;BME280;20454;48.100;11.776;2022-09-03T15:19:07;95355.78;;;17.43;96.41
34185;BME280;20454;48.100;11.776;2022-09-03T15:27:49;95349.19;;;17.35;99.64
34185;BME280;20454;48.100;11.776;2022-09-03T15:30:20;95355.53;;;17.32;100.00
34185;BME280;20454;48.100;11.776;2022-09-03T15:33:08;95367.06;;;17.27;100.00
34185;BME280;20454;48.100;11.776;2022-09-03T15:36:14;95358.94;;;17.22;100.00
34185;BME280;20454;48.100;11.776;2022-09-03T15:44:44;95369.38;;;17.06;100.00
34185;BME280;20454;48.100;11.776;2022-09-03T15:47:36;95367.25;;;17.00;99.97
34185;BME280;20454;48.100;11.776;2022-09-03T15:50:14;95376.38;;;16.97;100.00
34185;BME280;20454;48.100;11.776;2022-09-03T15:56:20;95368.00;;;16.81;100.00
34185;BME280;20454;48.100;11.776;2022-09-03T16:01:56;95369.72;;;16.70;100.00
34185;BME280;20454;48.100;11.776;2022-09-03T16:05:06;95362.03;;;16.67;100.00
34185;BME280;20454;48.100;11.776;2022-09-03T16:10:19;95366.31;;;16.61;100.00
34185;BME280;20454;48.100;11.776;2022-09-03T16:15:39;95369.91;;;16.62;100.00
34185;BME280;20454;48.100;11.776;2022-09-03T16:18:26;95358.41;;;16.67;100.00
34185;BME280;20454;48.100;11.776;2022-09-03T16:21:13;95359.41;;;16.74;100.00
34185;BME280;20454;48.100;11.776;2022-09-03T16:23:58;95355.94;;;16.81;100.00
34185;BME280;20454;48.100;11.776;2022-09-03T16:29:29;95344.56;;;17.08;100.00
34185;BME280;20454;48.100;11.776;2022-09-03T16:41:28;95319.03;;;17.93;99.88
34185;BME280;20454;48.100;11.776;2022-09-03T16:53:27;95316.75;;;18.66;96.29
34185;BME280;20454;48.100;11.776;2022-09-03T16:59:45;95319.88;;;18.61;96.75
34185;BME280;20454;48.100;11.776;2022-09-03T17:08:52;95306.94;;;18.11;98.17
34185;BME280;20454;48.100;11.776;2022-09-03T17:12:42;95308.59;;;17.93;98.44
34185;BME280;20454;48.100;11.776;2022-09-03T17:20:18;95298.19;;;17.56;100.00
34185;BME280;20454;48.100;11.776;2022-09-03T17:23:10;95299.53;;;17.43;100.00
34185;BME280;20454;48.100;11.776;2022-09-03T17:25:59;95297.22;;;17.29;100.00
34185;BME280;20454;48.100;11.776;2022-09-03T17:28:53;95311.13;;;17.22;100.00
34185;BME280;20454;48.100;11.776;2022-09-03T17:31:59;95304.72;;;17.06;100.00
34185;BME280;20454;48.100;11.776;2022-09-03T17:37:43;95299.09;;;16.87;100.00
34185;BME280;20454;48.100;11.776;2022-09-03T17:40:33;95302.91;;;16.79;100.00
34185;BME280;20454;48.100;11.776;2022-09-03T17:43:29;95305.47;;;16.69;100.00
34185;BME280;20454;48.100;11.776;2022-09-03T17:46:22;95313.19;;;16.56;100.00
34185;BME280;20454;48.100;11.776;2022-09-03T19:15:22;95378.09;;;14.87;100.00
34185;BME280;20454;48.100;11.776;2022-09-03T19:18:25;95392.78;;;14.83;100.00
34185;BME280;20454;48.100;11.776;2022-09-03T19:21:35;95384.97;;;14.77;100.00
34185;BME280;20454;48.100;11.776;2022-09-03T19:24:29;95392.44;;;14.73;100.00
34185;BME280;20454;48.100;11.776;2022-09-03T19:30:23;95396.28;;;14.69;100.00
34185;BME280;20454;48.100;11.776;2022-09-03T19:33:19;95400.25;;;14.68;100.00
34185;BME280;20454;48.100;11.776;2022-09-03T19:46:34;95421.72;;;14.52;100.00
34185;BME280;20454;48.100;11.776;2022-09-03T19:52:55;95423.13;;;14.46;100.00
34185;BME280;20454;48.100;11.776;2022-09-03T19:55:52;95427.44;;;14.43;100.00
34185;BME280;20454;48.100;11.776;2022-09-03T19:58:44;95426.94;;;14.41;100.00
34185;BME280;20454;48.100;11.776;2022-09-03T20:01:36;95429.16;;;14.36;100.00
34185;BME280;20454;48.100;11.776;2022-09-03T20:04:50;95442.34;;;14.35;100.00
34185;BME280;20454;48.100;11.776;2022-09-03T20:07:37;95447.84;;;14.32;100.00
34185;BME280;20454;48.100;11.776;2022-09-03T20:10:23;95437.66;;;14.27;100.00
34185;BME280;20454;48.100;11.776;2022-09-03T20:13:14;95444.78;;;14.25;100.00
34185;BME280;20454;48.100;11.776;2022-09-03T20:15:49;95443.50;;;14.22;100.00
34185;BME280;20454;48.100;11.776;2022-09-03T20:18:35;95445.47;;;14.22;100.00
34185;BME280;20454;48.100;11.776;2022-09-03T20:27:13;95452.91;;;14.18;100.00
34185;BME280;20454;48.100;11.776;2022-09-03T20:30:18;95450.09;;;14.18;100.00
34185;BME280;20454;48.100;11.776;2022-09-03T20:32:56;95452.78;;;14.14;100.00
34185;BME280;20454;48.100;11.776;2022-09-03T20:38:09;95450.66;;;14.11;100.00
34185;BME280;20454;48.100;11.776;2022-09-03T20:40:54;95451.81;;;14.10;100.00
34185;BME280;20454;48.100;11.776;2022-09-03T20:51:11;95455.19;;;14.04;100.00
34185;BME280;20454;48.100;11.776;2022-09-03T20:59:08;95462.63;;;14.00;100.00
34185;BME280;20454;48.100;11.776;2022-09-03T21:07:37;95471.22;;;13.95;100.00
34185;BME280;20454;48.100;11.776;2022-09-03T21:10:27;95461.53;;;13.92;100.00
34185;BME280;20454;48.100;11.776;2022-09-03T21:13:08;95469.13;;;13.92;100.00
34185;BME280;20454;48.100;11.776;2022-09-03T21:18:23;95476.56;;;13.88;100.00
34185;BME280;20454;48.100;11.776;2022-09-03T21:23:42;95477.25;;;13.85;100.00
34185;BME280;20454;48.100;11.776;2022-09-03T21:26:23;95474.00;;;13.83;100.00
34185;BME280;20454;48.100;11.776;2022-09-03T21:31:32;95477.94;;;13.82;100.00
34185;BME280;20454;48.100;11.776;2022-09-03T21:34:16;95476.66;;;13.79;100.00
34185;BME280;20454;48.100;11.776;2022-09-03T21:36:42;95483.06;;;13.80;100.00
34185;BME280;20454;48.100;11.776;2022-09-03T21:39:29;95483.88;;;13.80;100.00
34185;BME280;20454;48.100;11.776;2022-09-03T21:42:23;95477.34;;;13.76;100.00
34185;BME280;20454;48.100;11.776;2022-09-03T21:45:08;95478.63;;;13.79;100.00
34185;BME280;20454;48.100;11.776;2022-09-03T21:47:46;95490.16;;;13.77;100.00
34185;BME280;20454;48.100;11.776;2022-09-03T21:50:17;95481.41;;;13.79;100.00
34185;BME280;20454;48.100;11.776;2022-09-03T21:52:57;95481.41;;;13.79;100.00
34185;BME280;20454;48.100;11.776;2022-09-03T22:00:46;95479.31;;;13.76;100.00
34185;BME280;20454;48.100;11.776;2022-09-03T22:03:12;95481.75;;;13.77;100.00
34185;BME280;20454;48.100;11.776;2022-09-03T22:05:59;95484.22;;;13.79;100.00
34185;BME280;20454;48.100;11.776;2022-09-03T22:08:52;95476.88;;;13.74;100.00
34185;BME280;20454;48.100;11.776;2022-09-03T22:11:17;95478.16;;;13.77;100.00
34185;BME280;20454;48.100;11.776;2022-09-03T22:14:18;95476.53;;;13.76;100.00
34185;BME280;20454;48.100;11.776;2022-09-03T22:17:00;95478.03;;;13.73;100.00